ACT        NSW        VIC        QLD        SA        WA        TAS        NT        INFO        CALC            by VK5ZD

  Atmospheric Gas Attenuation - ITU Rec 676-11   --------------- db/100km ---------------
Station Date Time Temp RH % AH g/m3 Dew Point Wind Direction Speed kph Gust kph Barometer mB Rainfall Since 9am 24GHz 47GHz 76GHz 122GHz 134GHz 241GHz
Adelaide (West Terrace / Ngayirdapira) 27 12:20 14.7 51 6.42 4.7 7 9 1026 0 14.9 22.7 31.6 82.3 70.7 241.5
Adelaide Airport 27 12:20 14.4 56 6.92 5.7 15 17 1026.2 0 16.0 23.6 33.5 87.6 77.2 264.0
Andamooka 27 09:00 15 39 5 1.3 20 1013.1 0 11.9 20.2 26.0 67.5 53.2 180.0
Arkaroola 27 09:00 14.8 57 7.22 6.5 4 1013.1 0 16.6 23.5 34.0 88.9 79.6 272.8
Cape Borda 27 12:20 13.1 68 7.76 7.3 20 26 1026.1 0 17.8 25.2 37.4 97.7 89.2 306.1
Cape Jaffa 27 12:20 12.3 83 9.01 9.6 9 9 1013.1 0 20.5 27.0 42.2 111.0 105.9 364.5
Cape Willoughby 27 12:20 14.1 64 7.77 7.4 7 7 1013.1 0.2 17.8 24.5 36.4 95.3 87.3 299.5
Ceduna 27 12:20 21.2 28 5.19 2 20 32 1021.6 0 12.1 19.4 25.0 64.8 51.7 175.4
Clare 27 12:20 13.3 52 6.01 3.7 9 11 1025.3 0 14.1 22.4 30.6 79.6 66.9 228.0
Cleve 27 09:00 12.3 62 6.73 5.2 7 1026.6 0 15.7 23.8 33.7 88.0 76.9 262.7
Cleve Airport 27 12:20 16.8 43 6.15 4.2 11 13 1024.3 0 14.3 21.8 29.7 77.4 65.7 223.9
Coober Pedy Airport 27 12:20 21.1 21 3.87 -2 20 22 1022.2 0 9.4 17.8 20.9 53.9 38.2 127.7
Coonawarra 27 12:20 13.6 51 6 3.6 7 9 1026.7 0 14.1 22.4 30.5 79.3 66.7 227.0
Cultana (Defence) 27 12:20 18.2 38 5.91 3.6 20 26 1013.1 0 13.7 20.7 28.0 73.0 61.2 208.5
Cummins Airport 27 12:20 16.9 56 8.05 8.1 15 19 1024.2 0 18.3 24.6 36.6 95.9 88.5 304.1
Edinburgh 27 12:20 15.9 46 6.23 4.3 9 13 1026 0 14.5 22.2 30.4 79.2 67.4 230.1
Edithburgh 27 12:20 14.2 87 10.62 12 17 19 1013.1 0 23.9 29.1 48.0 126.2 125.4 433.0
Elliston 27 09:00 13.5 65 7.6 7.2 22 1026 0 17.5 24.9 36.5 95.5 86.7 297.3
Ernabella/Pukatja 27 12:20 23.8 16 3.44 -3.5 22 32 1017.5 0 8.4 16.6 18.9 48.6 32.7 108.7
Eudunda 27 09:00 10 65 6.11 3.7 4 1027.5 0.2 14.4 23.5 32.3 84.1 71.2 242.5
Gluepot 27 09:00 12.5 63 6.93 5.7 2 1013.1 0.4 16.1 23.6 33.8 88.5 78.3 267.9
Hawker 27 09:00 12.5 59 6.49 4.7 7 1026.4 0 15.1 23.4 32.7 85.3 73.6 251.4
Hindmarsh Island 27 12:20 14.2 65 7.94 7.7 13 15 1026.6 0.2 18.2 25.2 37.6 98.3 90.3 310.2
Kadina 27 12:20 16.2 44 6.07 3.9 13 17 1025.5 0 14.1 21.8 29.7 77.4 65.3 222.5
Karoonda 27 09:00 12.8 70 7.84 7.5 0 1013.1 0.2 18.0 25.0 37.2 97.6 89.6 307.7
Keith 27 09:00 11.6 76 7.9 7.6 4 1032.1 0.4 18.2 26.1 38.9 101.7 93.3 320.1
Keith West 27 12:20 14.1 65 7.89 7.6 4 4 1013.1 0 18.1 24.7 36.8 96.6 88.8 304.9
Kimba 27 09:00 12.2 63 6.8 5.4 7 1013.1 0 15.8 23.5 33.5 87.5 76.9 263.1
Kingscote 27 12:20 14.7 59 7.43 6.8 19 22 1026.3 0 17.0 24.3 35.4 92.4 83.3 285.4
Kuitpo 27 12:20 11 75 7.51 6.7 11 13 1024.8 0 17.4 25.4 37.3 97.5 88.2 302.4
Lameroo Aws 27 12:20 14.4 53 6.55 4.9 4 4 1013.1 0 15.2 22.5 31.6 82.7 71.8 245.3
Leigh Creek 27 12:20 18.2 27 4.2 -1.1 11 13 1024.1 0 10.1 18.8 22.7 58.8 43.1 144.6
Loxton 27 12:20 16 42 5.72 3.2 11 17 1026.3 0.2 13.4 21.4 28.6 74.3 61.4 208.9
Marree Airport 27 12:20 20.2 23 4.02 -1.6 17 20 1024.2 0 9.7 18.2 21.7 55.9 40.2 134.7
Meningie 27 09:00 13.2 97 11.14 12.7 1027.6 0.1 25.0 31.0 51.6 135.8 136.1 470.0
Minlaton Airport 27 12:20 16.9 47 6.76 5.5 17 20 1025.9 0 15.5 22.7 31.9 83.3 72.9 249.2
Minnipa Rs 27 12:20 18.3 32 5 1.3 22 26 1023.4 0 11.8 19.8 25.3 65.6 51.6 174.6
Moomba Airport 27 12:20 20 24 4.15 -1.2 15 17 1023.5 0 10.0 18.4 22.1 57.0 41.6 139.7
Mount Barker 27 09:00 10.1 82 7.76 7.2 4 1013.1 0.2 18.0 25.6 38.2 100.2 91.7 314.6
Mount Crawford 27 12:20 11.7 69 7.22 6.2 15 19 1025.1 0 16.7 24.7 35.8 93.6 83.7 286.5
Mount Gambier 27 12:20 13.4 58 6.74 5.3 11 13 1027.2 0 15.6 23.6 33.3 86.9 76.0 259.7
Mount Ive 27 09:00 14 47 5.67 2.8 6 1026.9 0 13.4 21.8 29.1 75.7 62.4 212.1
Mount Lofty 27 12:20 9.2 75 6.7 5 4 6 1013.1 0 15.7 24.1 34.3 89.9 78.6 268.7
Murray Bridge 27 09:00 13.1 73 8.33 8.5 4 1013.1 0.6 19.0 25.7 39.1 102.5 95.7 328.9
Naracoorte 27 12:20 13.8 66 7.86 7.6 7 9 1026.5 0 18.0 25.2 37.4 98.0 89.8 308.1
Noarlunga 27 12:20 13.7 67 7.93 7.7 11 13 1013.1 0 18.2 24.8 37.2 97.5 89.8 308.2
Nullarbor 27 12:20 22.4 26 5.16 2 52 61 1014.3 0 12.0 18.9 24.3 63.1 50.3 170.7
Nuriootpa 27 12:20 12.6 57 6.31 4.3 6 7 1026.1 0 14.8 23.1 32.0 83.3 71.3 243.1
Oodnadatta 27 12:20 21.9 21 4.05 -1.4 17 20 1021.7 0 9.7 17.8 21.2 54.8 39.6 132.8
Padthaway 27 12:20 14.9 63 8.03 7.9 9 9 1013.1 0.2 18.3 24.7 37.0 97.0 89.7 308.1
Pallamana 27 12:20 14.4 52 6.43 4.7 11 15 1026.6 0 14.9 22.8 31.7 82.7 71.2 243.0
Parafield 27 12:20 16.5 47 6.6 5.2 6 9 1025.9 0 15.2 22.6 31.5 82.2 71.3 243.7
Parawa West 27 12:20 10.7 77 7.56 6.8 11 17 1013.1 0 17.5 25.1 37.1 97.2 88.4 302.9
Parndana 27 12:20 13.4 69 8.02 7.8 9 13 1013.1 0.2 18.4 25.1 37.7 98.8 91.3 313.5
Point Avoid 27 12:20 17.6 53 7.95 7.9 17 22 1013.1 0 18.0 23.8 35.5 93.0 85.7 294.4
Port Augusta 27 12:20 18.7 35 5.6 2.9 19 22 1024.5 0 13.0 20.6 27.2 70.7 58.0 197.1
Port Lincoln Airport 27 12:20 15.1 66 8.51 8.8 26 30 1025.3 0 19.3 25.8 39.3 103.0 96.6 332.1
Port Pirie Airport Aws 27 12:20 17.5 39 5.81 3.4 13 15 1024.3 0 13.5 21.1 28.3 73.6 61.2 208.3
Renmark Airport 27 12:20 16.6 44 6.22 4.3 6 6 1026 0 14.4 22.0 30.1 78.4 66.7 227.7
Robe Airport 27 12:20 14.7 70 8.81 9.3 6 9 1013.1 0 20.0 26.0 40.2 105.5 100.0 344.2
Roseworthy 27 12:20 16 53 7.22 6.4 13 17 1025.5 0 16.5 23.6 34.0 88.7 79.3 271.5
Roxby Downs 27 12:20 20.8 20 3.62 -3 22 28 1023 0 8.9 17.5 20.3 52.1 35.8 119.5
Snowtown 27 12:20 16.9 39 5.61 2.9 11 15 1013.1 0 13.1 20.6 27.4 71.4 58.8 199.8
Stenhouse Bay 27 12:20 14.8 56 7.09 6.1 24 28 1013.1 0 16.3 23.3 33.5 87.6 78.0 267.2
Strathalbyn 27 12:20 13.7 62 7.34 6.6 15 19 1026.4 0 16.9 24.4 35.5 92.6 83.2 285.0
Streaky Bay 27 09:00 14 61 7.36 6.7 19 1024 0 16.9 24.3 35.3 92.3 82.9 284.3
Tarcoola 27 12:20 21.5 21 3.96 -1.7 28 32 1022.7 0 9.5 17.8 21.1 54.4 38.9 130.4
Victor Harbor 27 09:00 11.9 83 8.79 9.1 6 1013.1 0.6 20.1 26.8 41.5 109.1 103.4 355.8
Warooka 27 09:00 13 61 6.92 5.8 2 1027.8 0 16.0 24.0 34.2 89.3 78.7 269.1
Whyalla 27 12:20 17.1 45 6.55 5.1 13 17 1024.9 0 15.1 22.3 31.1 81.0 70.1 239.6
Woomera 27 12:20 19.4 23 3.84 -2.2 22 30 1023.3 0 9.4 18.1 21.3 54.9 38.7 129.4
Wudinna Airport 27 12:20 19.8 30 5.12 1.7 15 17 1023.1 0 12.0 19.7 25.2 65.4 51.9 175.9
Yongala 27 09:00 8.2 87 7.29 6.1 4 1013.1 0.1 17.0 25.4 37.2 97.4 87.6 299.9
Yunta 27 12:20 15 37 4.74 0.4 6 9 1013.1 0 11.4 19.8 25.1 65.1 50.3 169.8

Last Refresh: 27-Sep-2020 12:34:32

The information presented on this site is sourced from the Bureau of Meteorology.  Copyright in all material sourced from the Bureau of Meteorology resides with the Commonwealth of Australia.